Altmar, NY (13302)

10:22 AM EDT on August 04, 2015 (GMT -0400)
Lorton Lake Back End | | Change Station
CLOSE
Current Station
Personal Weather Station
Location: Altmar, NY
Elevation: 870 ft
Nearby Weather Stations

Elev 870 ft 43.50 °N, 75.89 °W | Updated 13 minutes ago

Mostly Cloudy
Mostly Cloudy
68.9 °F
Feels Like 68.9 °F
N
2.0
Wind Variable Wind from West

Today
High -- | Low -- °F
--% Chance of Precip.
Yesterday
High -- | Low -- °F
Precip. -- in
5:56 AM 8:23 PM
Waning Gibbous, 77% visible
Pressure 29.86 in
Visibility 10.0 miles
Clouds Few 2500 ft
Few 3200 ft
Mostly Cloudy 10000 ft
Dew Point 61 °F
Humidity 75%
Rainfall 0.00 in
Snow Depth Not available.
UV 3 out of 12
Pollen 7.00 out of 12
Air Quality Not available.
Flu Activity Not available.
METAR KFZY 041354Z AUTO 30006KT 10SM FEW025 FEW032 BKN100 23/16 A2987 RMK AO2 SLP112 T02280161

More Conditions Fewer Conditions

Pressure 29.86 in
Visibility 10.0 miles
Clouds Few 2500 ft
Few 3200 ft
Mostly Cloudy 10000 ft
Dew Point 61 °F
Humidity 75%
Rainfall 0.00 in
Snow Depth Not available.
UV 3 out of 12
Pollen 7.00 out of 12
Air Quality Not available.
Flu Activity Not available.
METAR KFZY 041354Z AUTO 30006KT 10SM FEW025 FEW032 BKN100 23/16 A2987 RMK AO2 SLP112 T02280161

More Conditions Fewer Conditions

10-Day Weather Forecast

×

Almanac

Astronomy

Aug. 04, 2015 Rise Set
Actual Time
Civil Twilight
Nautical Twilight
Astronomical Twilight
Moon
Length of Visible Light
Length of Day
Tomorrow will be .
, % of the Moon is Illuminated

Today's Extremes

State Highs State Lows

Community

WunderPhotos

Upload Photos

1,843,917 photos uploaded!

WunderBlogs® & News

Nearby

Air Quality

  Air Quality AQ Index Pollutant
Not available.

Snow Depth

Station Depth Elevation

Earthquake Activity

City Distance Mag. Time & Date
Minimum magnitude displayed is 2.5.

Coastal Water Temperatures

Place Temperature

Stations

Nearby Weather Stations

Station Location Temp. Windchill Dew Point Humidity Wind Precip. Elev Updated Type